createdAt,value
2023-04-17T00:01:32.307Z,5.47
2023-04-17T00:06:33.786Z,5.30
2023-04-17T00:11:35.391Z,5.38
2023-04-17T00:16:36.993Z,4.72
2023-04-17T00:21:38.600Z,4.50
2023-04-17T00:26:40.327Z,5.50
2023-04-17T00:31:42.099Z,5.25
2023-04-17T00:36:43.654Z,4.22
2023-04-17T00:41:45.451Z,4.65
2023-04-17T00:46:46.998Z,5.60
2023-04-17T00:51:49.413Z,4.65
2023-04-17T00:56:52.638Z,4.63
2023-04-17T01:01:54.250Z,5.53
2023-04-17T01:06:56.090Z,5.50
2023-04-17T01:12:19.561Z,4.38
2023-04-17T01:17:22.001Z,4.40
2023-04-17T01:22:23.968Z,5.07
2023-04-17T01:27:29.871Z,5.20
2023-04-17T01:32:31.407Z,5.90
2023-04-17T01:37:33.936Z,4.70
2023-04-17T01:42:35.548Z,5.00
2023-04-17T01:47:37.254Z,5.63
2023-04-17T01:52:39.896Z,4.68
2023-04-17T01:57:42.337Z,5.63
2023-04-17T02:02:43.907Z,4.70
2023-04-17T02:07:45.596Z,5.93
2023-04-17T02:12:47.118Z,5.45
2023-04-17T02:17:48.763Z,4.38
2023-04-17T02:22:50.301Z,5.20
2023-04-17T02:27:51.810Z,5.22
2023-04-17T02:32:54.629Z,5.65
2023-04-17T02:37:56.909Z,5.35
2023-04-17T02:42:58.704Z,5.28
2023-04-17T02:48:01.093Z,5.18
2023-04-17T02:53:02.940Z,4.75
2023-04-17T02:58:04.741Z,6.50
2023-04-17T03:03:07.801Z,4.97
2023-04-17T03:08:09.518Z,7.18
2023-04-17T03:13:19.170Z,5.25
2023-04-17T03:18:21.192Z,6.28
2023-04-17T03:23:22.732Z,5.78
2023-04-17T03:28:26.327Z,4.55
2023-04-17T03:33:28.774Z,5.22
2023-04-17T03:38:33.441Z,5.88
2023-04-17T03:43:35.187Z,5.78
2023-04-17T03:48:36.794Z,5.38
2023-04-17T03:53:38.598Z,5.95
2023-04-17T03:58:43.758Z,6.13
2023-04-17T04:03:48.046Z,5.72
2023-04-17T04:08:49.783Z,6.25
2023-04-17T04:13:52.624Z,5.53
2023-04-17T04:18:54.235Z,5.63
2023-04-17T04:23:56.141Z,4.82
2023-04-17T04:29:00.209Z,6.95
2023-04-17T04:34:13.345Z,5.90
2023-04-17T04:39:20.188Z,6.70
2023-04-17T04:44:21.899Z,6.85
2023-04-17T04:49:25.673Z,6.18
2023-04-17T04:54:27.530Z,5.28
2023-04-17T04:59:32.813Z,5.43
2023-04-17T05:04:53.352Z,5.63
2023-04-17T05:09:55.464Z,6.28
2023-04-17T05:14:56.929Z,5.55
2023-04-17T05:19:58.638Z,6.40
2023-04-17T05:25:00.319Z,7.30
2023-04-17T05:30:01.941Z,5.68
2023-04-17T05:35:05.079Z,7.13
2023-04-17T05:40:07.334Z,7.03
2023-04-17T05:45:13.478Z,6.53
2023-04-17T05:50:15.487Z,7.45
2023-04-17T05:55:17.548Z,5.88
2023-04-17T06:00:22.397Z,6.57
2023-04-17T06:05:29.877Z,6.57
2023-04-17T06:10:33.481Z,6.82
2023-04-17T06:15:36.456Z,5.55
2023-04-17T06:20:40.201Z,7.57
2023-04-17T06:25:42.099Z,7.45
2023-04-17T06:30:43.700Z,9.30
2023-04-17T06:35:45.618Z,8.40
2023-04-17T06:41:07.503Z,7.82
2023-04-17T06:46:10.936Z,8.80
2023-04-17T06:51:12.599Z,8.85
2023-04-17T06:56:14.403Z,9.25
2023-04-17T07:01:18.748Z,9.63
2023-04-17T07:06:21.015Z,9.07
2023-04-17T07:11:22.512Z,8.45
2023-04-17T07:16:24.240Z,9.50
2023-04-17T07:21:27.004Z,9.05
2023-04-17T07:26:28.680Z,9.25
2023-04-17T07:31:30.445Z,10.05
2023-04-17T07:36:32.181Z,10.40
2023-04-17T07:41:33.688Z,10.05
2023-04-17T07:46:35.248Z,8.82
2023-04-17T07:51:38.142Z,7.82
2023-04-17T07:56:39.929Z,9.23
2023-04-17T08:01:41.796Z,9.52
2023-04-17T08:11:56.453Z,8.23
2023-04-17T08:16:59.225Z,8.70
2023-04-17T08:22:03.636Z,7.35
2023-04-17T08:27:06.076Z,7.68
2023-04-17T08:32:14.619Z,7.50
2023-04-17T08:37:17.028Z,8.65
2023-04-17T08:42:19.215Z,7.03
2023-04-17T08:47:20.919Z,6.78
2023-04-17T08:52:22.480Z,7.75
2023-04-17T08:57:24.050Z,5.78
2023-04-17T09:02:27.775Z,6.35
2023-04-17T09:07:30.664Z,6.38
2023-04-17T09:12:32.625Z,6.25
2023-04-17T09:17:35.779Z,5.68
2023-04-17T09:22:42.135Z,6.35
2023-04-17T09:27:45.899Z,5.60
2023-04-17T09:32:47.474Z,5.47
2023-04-17T09:37:55.069Z,6.47
2023-04-17T09:43:00.633Z,5.93
2023-04-17T09:48:06.497Z,5.20
2023-04-17T09:53:09.361Z,5.90
2023-04-17T09:58:11.311Z,6.55
2023-04-17T10:03:15.440Z,5.82
2023-04-17T10:08:17.103Z,4.50
2023-04-17T10:13:21.137Z,5.00
2023-04-17T10:18:24.540Z,5.80
2023-04-17T10:23:36.761Z,5.80
2023-04-17T10:28:49.824Z,4.82
2023-04-17T10:33:54.245Z,5.32
2023-04-17T10:39:13.234Z,4.80
2023-04-17T10:44:15.195Z,5.07
2023-04-17T10:49:17.200Z,4.72
2023-04-17T10:54:19.229Z,5.10
2023-04-17T10:59:22.646Z,4.93
2023-04-17T11:04:28.303Z,4.65
2023-04-17T11:09:30.219Z,4.50
2023-04-17T11:14:32.632Z,4.88
2023-04-17T11:19:34.476Z,5.40
2023-04-17T11:24:36.289Z,4.78
2023-04-17T11:29:37.870Z,3.97
2023-04-17T11:34:39.607Z,4.55
2023-04-17T11:39:42.785Z,4.18
2023-04-17T11:44:45.481Z,4.47
2023-04-17T11:49:47.132Z,3.80
2023-04-17T11:54:57.101Z,4.00
2023-04-17T11:59:58.602Z,4.13
2023-04-17T12:05:13.835Z,3.97
2023-04-17T12:10:15.512Z,3.85
2023-04-17T12:15:17.042Z,3.78
2023-04-17T12:20:18.582Z,4.05
2023-04-17T12:25:20.221Z,3.58
2023-04-17T12:30:22.767Z,3.75
2023-04-17T12:35:25.469Z,3.72
2023-04-17T12:40:27.141Z,3.55
2023-04-17T12:45:29.311Z,3.05
2023-04-17T12:50:42.445Z,3.65
2023-04-17T12:56:02.177Z,4.15
2023-04-17T13:01:04.488Z,3.40
2023-04-17T13:06:10.716Z,4.07
2023-04-17T13:11:12.396Z,3.63
2023-04-17T13:16:14.364Z,4.78
2023-04-17T13:21:16.403Z,3.95
2023-04-17T13:26:18.402Z,4.28
2023-04-17T13:31:20.077Z,4.53
2023-04-17T13:36:21.696Z,4.20
2023-04-17T13:41:23.975Z,4.28
2023-04-17T13:46:25.647Z,4.28
2023-04-17T13:51:27.332Z,5.07
2023-04-17T13:56:29.170Z,4.03
2023-04-17T14:01:31.106Z,4.13
2023-04-17T14:06:34.540Z,5.40
2023-04-17T14:11:36.337Z,4.18
2023-04-17T14:16:38.376Z,4.38
2023-04-17T14:21:40.056Z,4.13
2023-04-17T14:26:42.130Z,3.78
2023-04-17T14:31:43.707Z,4.18
2023-04-17T14:36:45.360Z,4.25
2023-04-17T14:41:48.236Z,4.15
2023-04-17T14:46:50.995Z,4.22
2023-04-17T14:52:02.512Z,4.13
2023-04-17T14:57:05.357Z,4.57
2023-04-17T15:02:08.360Z,4.72
2023-04-17T15:07:10.986Z,4.30
2023-04-17T15:12:13.619Z,3.40
2023-04-17T15:17:28.190Z,4.22
2023-04-17T15:22:29.850Z,3.00
2023-04-17T15:27:31.771Z,4.10
2023-04-17T15:32:33.861Z,3.38
2023-04-17T15:37:38.089Z,2.75
2023-04-17T15:42:40.497Z,3.75
2023-04-17T15:47:42.351Z,3.47
2023-04-17T15:52:43.914Z,3.10
2023-04-17T15:57:45.457Z,2.10
2023-04-17T16:02:47.893Z,2.00
2023-04-17T16:07:50.004Z,2.35
2023-04-17T16:12:51.915Z,2.45
2023-04-17T16:17:53.532Z,2.67
2023-04-17T16:22:56.046Z,2.92
2023-04-17T16:27:57.643Z,3.13
2023-04-17T16:32:59.172Z,3.55
2023-04-17T16:38:01.528Z,3.47
2023-04-17T16:43:03.035Z,4.82
2023-04-17T16:48:05.086Z,3.97
2023-04-17T16:53:06.747Z,3.83
2023-04-17T16:58:08.384Z,3.95
2023-04-17T17:03:10.083Z,3.85
2023-04-17T17:08:13.270Z,2.97
2023-04-17T17:13:14.848Z,3.42
2023-04-17T17:18:16.859Z,3.42
2023-04-17T17:23:18.675Z,3.30
2023-04-17T17:28:20.231Z,3.05
2023-04-17T17:33:21.699Z,3.63
2023-04-17T17:38:24.027Z,2.53
2023-04-17T17:43:26.589Z,3.70
2023-04-17T17:48:28.096Z,2.92
2023-04-17T17:53:29.617Z,3.47
2023-04-17T17:58:31.119Z,2.90
2023-04-17T18:03:33.150Z,2.58
2023-04-17T18:08:35.236Z,5.55
2023-04-17T18:13:36.779Z,4.05
2023-04-17T18:18:38.864Z,2.75
2023-04-17T18:23:40.553Z,2.88
2023-04-17T18:28:42.877Z,2.42
2023-04-17T18:33:44.338Z,3.03
2023-04-17T18:38:46.521Z,2.63
2023-04-17T18:43:48.569Z,2.28
2023-04-17T18:48:50.181Z,2.08
2023-04-17T18:53:51.727Z,2.42
2023-04-17T18:58:53.319Z,2.47
2023-04-17T19:03:54.855Z,2.90
2023-04-17T19:08:59.212Z,2.42
2023-04-17T19:14:00.766Z,1.90
2023-04-17T19:19:02.276Z,2.40
2023-04-17T19:24:03.965Z,2.67
2023-04-17T19:29:05.677Z,2.83
2023-04-17T19:34:08.430Z,2.88
2023-04-17T19:39:10.083Z,2.33
2023-04-17T19:44:11.605Z,3.15
2023-04-17T19:49:13.413Z,2.90
2023-04-17T19:54:15.794Z,2.40
2023-04-17T19:59:17.302Z,2.42
2023-04-17T20:04:18.934Z,2.65
2023-04-17T20:09:23.638Z,2.30
2023-04-17T20:14:25.740Z,3.08
2023-04-17T20:19:27.271Z,2.50
2023-04-17T20:24:29.245Z,2.70
2023-04-17T20:29:33.353Z,2.78
2023-04-17T20:34:35.082Z,2.67
2023-04-17T20:39:36.676Z,2.47
2023-04-17T20:44:38.156Z,2.08
2023-04-17T20:49:40.035Z,2.80
2023-04-17T20:54:41.529Z,2.75
2023-04-17T20:59:43.087Z,2.67
2023-04-17T21:04:45.933Z,2.17
2023-04-17T21:09:48.447Z,2.63
2023-04-17T21:14:50.166Z,2.75
2023-04-17T21:19:51.734Z,2.83
2023-04-17T21:24:53.229Z,2.15
2023-04-17T21:29:54.847Z,2.20
2023-04-17T21:34:56.366Z,1.88
2023-04-17T21:39:57.948Z,2.65
2023-04-17T21:44:59.458Z,2.72
2023-04-17T21:50:01.006Z,2.50
2023-04-17T21:55:05.181Z,2.83
2023-04-17T22:00:11.460Z,2.00
2023-04-17T22:05:13.154Z,2.40
2023-04-17T22:10:14.833Z,3.17
2023-04-17T22:15:16.858Z,2.65
2023-04-17T22:20:19.069Z,2.40
2023-04-17T22:25:20.976Z,2.45
2023-04-17T22:30:22.679Z,2.15
2023-04-17T22:35:24.392Z,2.72
2023-04-17T22:40:26.024Z,2.38
2023-04-17T22:45:27.556Z,2.05
2023-04-17T22:50:30.647Z,2.72
2023-04-17T22:55:32.705Z,2.45
2023-04-17T23:00:34.789Z,2.15
2023-04-17T23:05:36.419Z,3.13
2023-04-17T23:10:37.983Z,2.05
2023-04-17T23:15:39.456Z,2.50
2023-04-17T23:20:41.020Z,2.65
2023-04-17T23:25:42.478Z,2.42
2023-04-17T23:30:44.108Z,2.03
2023-04-17T23:35:45.775Z,2.55
2023-04-17T23:40:47.650Z,2.78
2023-04-17T23:45:49.191Z,3.42
2023-04-17T23:50:50.773Z,2.75
2023-04-17T23:55:52.312Z,2.80
